ADDS METAR Data INFO
IDs: Format: Raw Decoded Include TAF

Data at: 1714 UTC 23 Oct 2017

METAR for:KSUA (Stuart/Witham Fld, FL, US)
Text:KSUA 231647Z 16015KT 7SM SCT027 BKN033 31/24 A3004
Temperature: 31.0°C ( 88°F)
Dewpoint: 24.0°C ( 75°F) [RH = 66%]
Pressure (altimeter):30.04 inches Hg (1017.4 mb)
Winds:from the SSE (160 degrees) at 17 MPH (15 knots; 7.7 m/s)
Visibility: 7 sm ( 11 km)
Ceiling:3300 feet AGL
Clouds: scattered clouds at 2700 feet AGL, broken clouds at 3300 feet AGL